sensor_id;sensor_type;location;lat;lon;timestamp;pressure;altitude;pressure_sealevel;temperature;humidity
30875;BME280;17581;43.222;27.924;2023-02-26T00:00:12;99742.50;;;15.46;62.85
30875;BME280;17581;43.222;27.924;2023-02-26T00:02:43;99742.50;;;15.46;63.05
30875;BME280;17581;43.222;27.924;2023-02-26T00:05:10;99739.28;;;15.43;62.89
30875;BME280;17581;43.222;27.924;2023-02-26T00:07:36;99736.94;;;15.40;63.10
30875;BME280;17581;43.222;27.924;2023-02-26T00:10:03;99736.44;;;15.36;63.18
30875;BME280;17581;43.222;27.924;2023-02-26T00:12:29;99731.56;;;15.32;63.45
30875;BME280;17581;43.222;27.924;2023-02-26T00:14:55;99727.50;;;15.27;63.79
30875;BME280;17581;43.222;27.924;2023-02-26T00:20:06;99716.31;;;15.31;63.69
30875;BME280;17581;43.222;27.924;2023-02-26T00:22:32;99735.94;;;15.33;64.28
30875;BME280;17581;43.222;27.924;2023-02-26T00:24:58;99719.19;;;15.29;64.05
30875;BME280;17581;43.222;27.924;2023-02-26T00:27:23;99720.41;;;15.26;64.27
30875;BME280;17581;43.222;27.924;2023-02-26T00:29:49;99732.09;;;15.27;64.84
30875;BME280;17581;43.222;27.924;2023-02-26T00:32:15;99705.56;;;15.14;64.88
30875;BME280;17581;43.222;27.924;2023-02-26T00:34:43;99722.09;;;15.27;65.03
30875;BME280;17581;43.222;27.924;2023-02-26T00:39:50;99728.50;;;15.35;64.94
30875;BME280;17581;43.222;27.924;2023-02-26T00:42:21;99731.59;;;15.23;65.62
30875;BME280;17581;43.222;27.924;2023-02-26T00:44:46;99725.16;;;15.24;65.68
30875;BME280;17581;43.222;27.924;2023-02-26T00:47:35;99730.03;;;15.29;66.00
30875;BME280;17581;43.222;27.924;2023-02-26T00:55:20;99705.66;;;15.29;65.94
30875;BME280;17581;43.222;27.924;2023-02-26T00:57:46;99705.66;;;15.29;65.74
30875;BME280;17581;43.222;27.924;2023-02-26T01:00:12;99702.44;;;15.34;66.27
30875;BME280;17581;43.222;27.924;2023-02-26T01:02:39;99696.81;;;15.35;66.05
30875;BME280;17581;43.222;27.924;2023-02-26T01:05:05;99695.16;;;15.34;66.06
30875;BME280;17581;43.222;27.924;2023-02-26T01:07:39;99701.44;;;15.26;66.22
30875;BME280;17581;43.222;27.924;2023-02-26T01:10:06;99692.16;;;15.21;66.65
30875;BME280;17581;43.222;27.924;2023-02-26T01:12:32;99696.34;;;15.32;66.61
30875;BME280;17581;43.222;27.924;2023-02-26T01:14:58;99705.00;;;15.27;66.95
30875;BME280;17581;43.222;27.924;2023-02-26T01:17:38;99692.78;;;15.31;67.00
30875;BME280;17581;43.222;27.924;2023-02-26T01:20:19;99696.03;;;15.26;67.08
30875;BME280;17581;43.222;27.924;2023-02-26T01:22:51;99684.16;;;15.27;67.12
30875;BME280;17581;43.222;27.924;2023-02-26T01:25:28;99688.25;;;15.23;67.11
30875;BME280;17581;43.222;27.924;2023-02-26T01:27:55;99681.47;;;15.27;67.16
30875;BME280;17581;43.222;27.924;2023-02-26T01:30:22;99677.41;;;15.23;67.41
30875;BME280;17581;43.222;27.924;2023-02-26T01:33:13;99686.69;;;15.29;67.45
30875;BME280;17581;43.222;27.924;2023-02-26T01:36:08;99676.03;;;15.27;67.26
30875;BME280;17581;43.222;27.924;2023-02-26T01:44:12;99679.81;;;15.18;67.48
30875;BME280;17581;43.222;27.924;2023-02-26T01:47:14;99683.53;;;15.17;67.73
30875;BME280;17581;43.222;27.924;2023-02-26T01:49:41;99681.69;;;15.18;67.60
30875;BME280;17581;43.222;27.924;2023-02-26T01:55:20;99688.25;;;15.23;67.43
30875;BME280;17581;43.222;27.924;2023-02-26T01:57:47;99696.72;;;15.29;67.50
30875;BME280;17581;43.222;27.924;2023-02-26T02:00:13;99685.53;;;15.23;67.63
30875;BME280;17581;43.222;27.924;2023-02-26T02:02:39;99691.59;;;15.34;67.25
30875;BME280;17581;43.222;27.924;2023-02-26T02:05:23;99698.00;;;15.33;67.42
30875;BME280;17581;43.222;27.924;2023-02-26T02:07:51;99709.56;;;15.26;67.53
30875;BME280;17581;43.222;27.924;2023-02-26T02:10:17;99723.78;;;15.29;67.68
30875;BME280;17581;43.222;27.924;2023-02-26T02:12:59;99728.16;;;15.38;67.50
30875;BME280;17581;43.222;27.924;2023-02-26T02:18:42;99729.16;;;15.37;67.38
30875;BME280;17581;43.222;27.924;2023-02-26T02:23:47;99739.16;;;15.36;67.37
30875;BME280;17581;43.222;27.924;2023-02-26T02:26:49;99749.47;;;15.41;67.45
30875;BME280;17581;43.222;27.924;2023-02-26T02:37:47;99733.34;;;15.47;67.44
30875;BME280;17581;43.222;27.924;2023-02-26T02:40:18;99748.44;;;15.42;67.17
30875;BME280;17581;43.222;27.924;2023-02-26T02:42:54;99748.78;;;15.39;67.43
30875;BME280;17581;43.222;27.924;2023-02-26T02:47:56;99748.13;;;15.37;67.35
30875;BME280;17581;43.222;27.924;2023-02-26T02:50:34;99752.00;;;15.42;67.34
30875;BME280;17581;43.222;27.924;2023-02-26T02:53:09;99765.19;;;15.45;66.98
30875;BME280;17581;43.222;27.924;2023-02-26T02:56:00;99773.66;;;15.42;67.15
30875;BME280;17581;43.222;27.924;2023-02-26T02:58:33;99779.44;;;15.39;67.24
30875;BME280;17581;43.222;27.924;2023-02-26T03:01:05;99784.84;;;15.39;67.14
30875;BME280;17581;43.222;27.924;2023-02-26T03:03:35;99784.84;;;15.39;67.49
30875;BME280;17581;43.222;27.924;2023-02-26T03:06:03;99776.56;;;15.41;67.31
30875;BME280;17581;43.222;27.924;2023-02-26T03:08:34;99781.00;;;15.34;67.16
30875;BME280;17581;43.222;27.924;2023-02-26T03:11:01;99787.41;;;15.41;67.05
30875;BME280;17581;43.222;27.924;2023-02-26T03:13:26;99789.06;;;15.42;67.14
30875;BME280;17581;43.222;27.924;2023-02-26T03:16:02;99792.81;;;15.41;67.06
30875;BME280;17581;43.222;27.924;2023-02-26T03:21:54;99795.88;;;15.38;67.31
30875;BME280;17581;43.222;27.924;2023-02-26T03:24:37;99799.25;;;15.40;67.12
30875;BME280;17581;43.222;27.924;2023-02-26T03:27:21;99805.34;;;15.42;66.93
30875;BME280;17581;43.222;27.924;2023-02-26T03:30:03;99811.25;;;15.45;66.98
30875;BME280;17581;43.222;27.924;2023-02-26T03:32:38;99803.81;;;15.47;66.62
30875;BME280;17581;43.222;27.924;2023-02-26T03:35:09;99807.03;;;15.43;66.88
30875;BME280;17581;43.222;27.924;2023-02-26T03:37:40;99793.19;;;15.38;66.74
30875;BME280;17581;43.222;27.924;2023-02-26T03:40:45;99801.63;;;15.43;66.95
30875;BME280;17581;43.222;27.924;2023-02-26T03:43:22;99805.69;;;15.39;66.95
30875;BME280;17581;43.222;27.924;2023-02-26T03:45:53;99799.25;;;15.40;67.11
30875;BME280;17581;43.222;27.924;2023-02-26T03:48:24;99808.25;;;15.40;66.79
30875;BME280;17581;43.222;27.924;2023-02-26T03:50:52;99816.38;;;15.40;66.96
30875;BME280;17581;43.222;27.924;2023-02-26T03:53:24;99805.38;;;15.34;66.91
30875;BME280;17581;43.222;27.924;2023-02-26T03:58:52;99804.84;;;15.38;66.42
30875;BME280;17581;43.222;27.924;2023-02-26T04:01:21;99824.63;;;15.47;66.57
30875;BME280;17581;43.222;27.924;2023-02-26T04:04:04;99828.06;;;15.41;66.64
30875;BME280;17581;43.222;27.924;2023-02-26T04:06:40;99819.94;;;15.41;66.46
30875;BME280;17581;43.222;27.924;2023-02-26T04:09:06;99835.47;;;15.47;66.28
30875;BME280;17581;43.222;27.924;2023-02-26T04:11:32;99837.88;;;15.50;66.18
30875;BME280;17581;43.222;27.924;2023-02-26T04:13:59;99835.16;;;15.50;66.20
30875;BME280;17581;43.222;27.924;2023-02-26T04:16:25;99844.25;;;15.57;65.99
30875;BME280;17581;43.222;27.924;2023-02-26T04:18:50;99834.47;;;15.56;65.97
30875;BME280;17581;43.222;27.924;2023-02-26T04:21:18;99842.53;;;15.64;65.66
30875;BME280;17581;43.222;27.924;2023-02-26T04:23:44;99833.03;;;15.68;65.68
30875;BME280;17581;43.222;27.924;2023-02-26T04:26:10;99839.47;;;15.67;65.52
30875;BME280;17581;43.222;27.924;2023-02-26T04:28:37;99832.69;;;15.71;65.73
30875;BME280;17581;43.222;27.924;2023-02-26T04:31:04;99838.47;;;15.68;65.30
30875;BME280;17581;43.222;27.924;2023-02-26T04:33:30;99849.09;;;15.77;65.68
30875;BME280;17581;43.222;27.924;2023-02-26T04:35:57;99844.84;;;15.75;65.86
30875;BME280;17581;43.222;27.924;2023-02-26T04:38:23;99852.47;;;15.79;65.57
30875;BME280;17581;43.222;27.924;2023-02-26T04:40:49;99848.91;;;15.79;65.55
30875;BME280;17581;43.222;27.924;2023-02-26T04:43:15;99849.22;;;15.84;65.36
30875;BME280;17581;43.222;27.924;2023-02-26T04:45:41;99846.19;;;15.79;65.57
30875;BME280;17581;43.222;27.924;2023-02-26T04:48:06;99849.56;;;15.81;65.87
30875;BME280;17581;43.222;27.924;2023-02-26T04:50:31;99820.66;;;15.73;65.76
30875;BME280;17581;43.222;27.924;2023-02-26T04:52:57;99828.56;;;15.83;65.38
30875;BME280;17581;43.222;27.924;2023-02-26T04:55:22;99853.91;;;15.90;65.60
30875;BME280;17581;43.222;27.924;2023-02-26T04:57:48;99852.25;;;15.89;65.56
30875;BME280;17581;43.222;27.924;2023-02-26T05:00:14;99850.56;;;15.88;65.32
30875;BME280;17581;43.222;27.924;2023-02-26T05:02:40;99848.69;;;15.89;65.40
30875;BME280;17581;43.222;27.924;2023-02-26T05:05:05;99853.28;;;15.88;65.47
30875;BME280;17581;43.222;27.924;2023-02-26T05:07:31;99869.38;;;15.90;65.43
30875;BME280;17581;43.222;27.924;2023-02-26T05:09:56;99872.97;;;15.82;66.01
30875;BME280;17581;43.222;27.924;2023-02-26T05:12:22;99877.66;;;15.88;65.54
30875;BME280;17581;43.222;27.924;2023-02-26T05:14:47;99885.28;;;15.93;65.47
30875;BME280;17581;43.222;27.924;2023-02-26T05:17:13;99884.44;;;15.92;65.39
30875;BME280;17581;43.222;27.924;2023-02-26T05:19:38;99890.72;;;15.93;65.54
30875;BME280;17581;43.222;27.924;2023-02-26T05:22:04;99891.19;;;15.96;65.41
30875;BME280;17581;43.222;27.924;2023-02-26T05:24:29;99903.50;;;16.07;64.98
30875;BME280;17581;43.222;27.924;2023-02-26T05:26:55;99910.81;;;16.06;65.00
30875;BME280;17581;43.222;27.924;2023-02-26T05:29:20;99908.50;;;15.95;65.25
30875;BME280;17581;43.222;27.924;2023-02-26T05:31:45;99916.94;;;16.00;65.29
30875;BME280;17581;43.222;27.924;2023-02-26T05:34:11;99902.72;;;15.90;65.34
30875;BME280;17581;43.222;27.924;2023-02-26T05:36:36;99904.09;;;15.94;65.75
30875;BME280;17581;43.222;27.924;2023-02-26T05:39:02;99920.34;;;16.02;65.40
30875;BME280;17581;43.222;27.924;2023-02-26T05:41:27;99922.38;;;16.00;65.57
30875;BME280;17581;43.222;27.924;2023-02-26T05:43:53;99933.06;;;16.02;65.49
30875;BME280;17581;43.222;27.924;2023-02-26T05:46:18;99941.00;;;16.03;65.44
30875;BME280;17581;43.222;27.924;2023-02-26T05:48:44;99934.00;;;16.09;65.33
30875;BME280;17581;43.222;27.924;2023-02-26T05:51:09;99935.91;;;16.08;65.33
30875;BME280;17581;43.222;27.924;2023-02-26T05:53:35;99937.91;;;16.14;65.24
30875;BME280;17581;43.222;27.924;2023-02-26T05:56:00;99934.88;;;16.09;64.89
30875;BME280;17581;43.222;27.924;2023-02-26T05:58:26;99933.53;;;16.05;65.21
30875;BME280;17581;43.222;27.924;2023-02-26T06:00:52;99917.06;;;16.07;64.89
30875;BME280;17581;43.222;27.924;2023-02-26T06:03:17;99927.88;;;16.15;65.01
30875;BME280;17581;43.222;27.924;2023-02-26T06:05:43;99931.13;;;16.10;64.90
30875;BME280;17581;43.222;27.924;2023-02-26T06:08:08;99938.63;;;16.00;64.92
30875;BME280;17581;43.222;27.924;2023-02-26T06:10:36;99931.66;;;16.06;65.10
30875;BME280;17581;43.222;27.924;2023-02-26T06:13:01;99935.72;;;16.10;64.69
30875;BME280;17581;43.222;27.924;2023-02-26T06:15:27;99944.34;;;16.13;64.75
30875;BME280;17581;43.222;27.924;2023-02-26T06:17:52;99937.78;;;16.08;64.67
30875;BME280;17581;43.222;27.924;2023-02-26T06:20:18;99937.91;;;16.14;64.60
30875;BME280;17581;43.222;27.924;2023-02-26T06:22:43;99942.00;;;16.10;64.58
30875;BME280;17581;43.222;27.924;2023-02-26T06:25:08;99944.84;;;16.17;64.38
30875;BME280;17581;43.222;27.924;2023-02-26T06:27:34;99950.78;;;16.12;64.58
30875;BME280;17581;43.222;27.924;2023-02-26T06:29:59;99945.50;;;16.19;64.48
30875;BME280;17581;43.222;27.924;2023-02-26T06:32:25;99932.13;;;16.17;64.33
30875;BME280;17581;43.222;27.924;2023-02-26T06:34:50;99943.63;;;16.19;63.94
30875;BME280;17581;43.222;27.924;2023-02-26T06:37:16;99936.00;;;16.23;64.14
30875;BME280;17581;43.222;27.924;2023-02-26T06:39:41;99947.69;;;16.23;63.96
30875;BME280;17581;43.222;27.924;2023-02-26T06:42:07;99948.78;;;16.06;64.20
30875;BME280;17581;43.222;27.924;2023-02-26T06:44:32;99965.69;;;16.16;64.17
30875;BME280;17581;43.222;27.924;2023-02-26T06:46:58;99966.72;;;16.15;64.13
30875;BME280;17581;43.222;27.924;2023-02-26T06:49:23;99983.31;;;16.20;64.15
30875;BME280;17581;43.222;27.924;2023-02-26T06:51:49;99979.63;;;16.13;63.51
30875;BME280;17581;43.222;27.924;2023-02-26T06:54:14;99960.31;;;16.08;63.64
30875;BME280;17581;43.222;27.924;2023-02-26T06:56:40;99975.06;;;16.06;63.54
30875;BME280;17581;43.222;27.924;2023-02-26T06:59:05;99975.03;;;16.14;63.69
30875;BME280;17581;43.222;27.924;2023-02-26T07:01:32;99989.91;;;16.18;63.28
30875;BME280;17581;43.222;27.924;2023-02-26T07:03:57;99989.56;;;16.21;63.60
30875;BME280;17581;43.222;27.924;2023-02-26T07:06:23;99977.75;;;16.14;63.25
30875;BME280;17581;43.222;27.924;2023-02-26T07:08:48;100016.91;;;16.19;63.09
30875;BME280;17581;43.222;27.924;2023-02-26T07:11:14;100004.72;;;16.07;63.49
30875;BME280;17581;43.222;27.924;2023-02-26T07:13:39;99996.59;;;16.07;63.25
30875;BME280;17581;43.222;27.924;2023-02-26T07:16:05;100007.09;;;16.10;63.43
30875;BME280;17581;43.222;27.924;2023-02-26T07:18:35;99976.56;;;16.16;63.48
30875;BME280;17581;43.222;27.924;2023-02-26T07:21:02;100007.59;;;16.14;63.35
30875;BME280;17581;43.222;27.924;2023-02-26T07:23:28;100002.84;;;16.16;63.41
30875;BME280;17581;43.222;27.924;2023-02-26T07:25:53;100002.66;;;16.17;62.74
30875;BME280;17581;43.222;27.924;2023-02-26T07:28:18;100000.63;;;16.19;62.89
30875;BME280;17581;43.222;27.924;2023-02-26T07:30:45;100010.25;;;16.22;62.76
30875;BME280;17581;43.222;27.924;2023-02-26T07:33:10;100013.94;;;16.37;62.85
30875;BME280;17581;43.222;27.924;2023-02-26T07:35:37;100019.84;;;16.41;62.47
30875;BME280;17581;43.222;27.924;2023-02-26T07:38:02;100017.09;;;16.49;61.96
30875;BME280;17581;43.222;27.924;2023-02-26T07:40:28;100017.09;;;16.49;61.88
30875;BME280;17581;43.222;27.924;2023-02-26T07:42:53;100007.56;;;16.53;61.68
30875;BME280;17581;43.222;27.924;2023-02-26T07:45:19;100010.63;;;16.58;61.38
30875;BME280;17581;43.222;27.924;2023-02-26T07:47:48;99995.38;;;16.49;61.34
30875;BME280;17581;43.222;27.924;2023-02-26T07:50:13;100001.13;;;16.54;61.21
30875;BME280;17581;43.222;27.924;2023-02-26T07:52:39;99998.41;;;16.54;61.29
30875;BME280;17581;43.222;27.924;2023-02-26T07:55:05;100004.19;;;16.59;61.18
30875;BME280;17581;43.222;27.924;2023-02-26T07:57:30;100003.16;;;16.60;60.97
30875;BME280;17581;43.222;27.924;2023-02-26T07:59:56;99998.22;;;16.63;60.76
30875;BME280;17581;43.222;27.924;2023-02-26T08:02:21;99991.94;;;16.63;60.83
30875;BME280;17581;43.222;27.924;2023-02-26T08:04:48;100005.97;;;16.74;60.25
30875;BME280;17581;43.222;27.924;2023-02-26T08:07:13;100002.22;;;16.75;60.70
30875;BME280;17581;43.222;27.924;2023-02-26T08:09:39;100003.19;;;16.82;60.28
30875;BME280;17581;43.222;27.924;2023-02-26T08:12:04;100001.56;;;16.96;59.70
30875;BME280;17581;43.222;27.924;2023-02-26T08:14:30;99998.59;;;17.06;59.20
30875;BME280;17581;43.222;27.924;2023-02-26T08:16:55;100003.44;;;17.18;58.56
30875;BME280;17581;43.222;27.924;2023-02-26T08:19:20;100009.44;;;17.28;58.44
30875;BME280;17581;43.222;27.924;2023-02-26T08:21:46;100007.13;;;17.40;58.20
30875;BME280;17581;43.222;27.924;2023-02-26T08:24:11;99999.91;;;17.32;57.24
30875;BME280;17581;43.222;27.924;2023-02-26T08:26:37;99992.28;;;17.28;57.26
30875;BME280;17581;43.222;27.924;2023-02-26T08:29:03;100007.03;;;17.33;56.79
30875;BME280;17581;43.222;27.924;2023-02-26T08:31:29;99991.19;;;17.37;56.97
30875;BME280;17581;43.222;27.924;2023-02-26T08:33:55;99985.50;;;17.47;56.59
30875;BME280;17581;43.222;27.924;2023-02-26T08:36:22;99978.47;;;17.52;56.58
30875;BME280;17581;43.222;27.924;2023-02-26T08:38:47;99985.84;;;17.66;56.25
30875;BME280;17581;43.222;27.924;2023-02-26T08:41:13;99984.91;;;17.74;55.57
30875;BME280;17581;43.222;27.924;2023-02-26T08:43:38;99966.81;;;17.81;55.57
30875;BME280;17581;43.222;27.924;2023-02-26T08:46:04;99971.59;;;17.93;55.04
30875;BME280;17581;43.222;27.924;2023-02-26T08:48:29;99970.75;;;17.93;54.78
30875;BME280;17581;43.222;27.924;2023-02-26T08:50:55;99976.09;;;18.01;55.03
30875;BME280;17581;43.222;27.924;2023-02-26T08:53:20;99968.78;;;18.02;54.43
30875;BME280;17581;43.222;27.924;2023-02-26T08:55:50;99971.78;;;18.07;53.80
30875;BME280;17581;43.222;27.924;2023-02-26T08:58:15;99969.81;;;18.15;53.83
30875;BME280;17581;43.222;27.924;2023-02-26T09:00:41;99974.13;;;18.24;53.66
30875;BME280;17581;43.222;27.924;2023-02-26T09:03:06;99964.63;;;18.20;53.53
30875;BME280;17581;43.222;27.924;2023-02-26T09:05:32;99972.38;;;18.38;53.17
30875;BME280;17581;43.222;27.924;2023-02-26T09:07:58;99972.28;;;18.46;52.89
30875;BME280;17581;43.222;27.924;2023-02-26T09:10:23;99961.75;;;18.58;52.61
30875;BME280;17581;43.222;27.924;2023-02-26T09:12:49;99972.53;;;18.66;52.36
30875;BME280;17581;43.222;27.924;2023-02-26T09:15:14;99974.78;;;18.77;52.03
30875;BME280;17581;43.222;27.924;2023-02-26T09:17:40;99966.47;;;18.85;52.03
30875;BME280;17581;43.222;27.924;2023-02-26T09:20:07;99965.28;;;18.94;51.82
30875;BME280;17581;43.222;27.924;2023-02-26T09:22:33;99955.81;;;18.90;51.52
30875;BME280;17581;43.222;27.924;2023-02-26T09:24:59;99966.06;;;18.88;51.86
30875;BME280;17581;43.222;27.924;2023-02-26T09:27:25;99972.69;;;19.00;51.38
30875;BME280;17581;43.222;27.924;2023-02-26T09:29:51;99952.97;;;18.98;51.43
30875;BME280;17581;43.222;27.924;2023-02-26T09:32:16;99961.31;;;19.18;51.08
30875;BME280;17581;43.222;27.924;2023-02-26T09:34:42;99963.00;;;19.19;51.02
30875;BME280;17581;43.222;27.924;2023-02-26T09:37:08;99978.59;;;19.25;50.95
30875;BME280;17581;43.222;27.924;2023-02-26T09:39:34;99979.69;;;19.30;50.92
30875;BME280;17581;43.222;27.924;2023-02-26T09:44:41;99992.16;;;19.39;50.84
30875;BME280;17581;43.222;27.924;2023-02-26T09:47:16;99984.56;;;19.56;50.68
30875;BME280;17581;43.222;27.924;2023-02-26T09:52:36;99991.03;;;19.55;50.15
30875;BME280;17581;43.222;27.924;2023-02-26T09:55:12;99982.91;;;19.62;50.23
30875;BME280;17581;43.222;27.924;2023-02-26T09:57:46;99984.88;;;19.46;50.59
30875;BME280;17581;43.222;27.924;2023-02-26T10:00:40;99986.72;;;19.39;50.65
30875;BME280;17581;43.222;27.924;2023-02-26T10:11:47;99961.78;;;19.21;50.65
30875;BME280;17581;43.222;27.924;2023-02-26T10:14:19;99969.84;;;19.29;50.56
30875;BME280;17581;43.222;27.924;2023-02-26T10:16:51;99976.56;;;19.33;50.56
30875;BME280;17581;43.222;27.924;2023-02-26T10:19:19;99973.59;;;19.28;50.84
30875;BME280;17581;43.222;27.924;2023-02-26T10:21:51;99975.72;;;19.33;50.92
30875;BME280;17581;43.222;27.924;2023-02-26T10:24:25;99975.28;;;19.29;50.96
30875;BME280;17581;43.222;27.924;2023-02-26T10:26:56;99988.00;;;19.43;50.86
30875;BME280;17581;43.222;27.924;2023-02-26T10:29:36;99964.16;;;19.52;50.53
30875;BME280;17581;43.222;27.924;2023-02-26T10:37:25;99969.16;;;19.27;51.03
30875;BME280;17581;43.222;27.924;2023-02-26T10:39:58;99971.41;;;19.17;51.33
30875;BME280;17581;43.222;27.924;2023-02-26T10:42:38;99975.94;;;19.10;51.37
30875;BME280;17581;43.222;27.924;2023-02-26T10:48:24;99978.78;;;19.02;51.72
30875;BME280;17581;43.222;27.924;2023-02-26T10:50:54;99978.00;;;19.08;51.66
30875;BME280;17581;43.222;27.924;2023-02-26T10:53:21;99973.31;;;19.02;51.66
30875;BME280;17581;43.222;27.924;2023-02-26T10:55:55;99961.66;;;18.87;51.75
30875;BME280;17581;43.222;27.924;2023-02-26T10:58:24;99925.72;;;18.77;52.09
30875;BME280;17581;43.222;27.924;2023-02-26T11:00:52;99949.19;;;18.78;52.29
30875;BME280;17581;43.222;27.924;2023-02-26T11:03:21;99957.13;;;18.73;52.47
30875;BME280;17581;43.222;27.924;2023-02-26T11:05:49;99965.94;;;18.75;52.45
30875;BME280;17581;43.222;27.924;2023-02-26T11:08:31;99963.41;;;18.73;52.30
30875;BME280;17581;43.222;27.924;2023-02-26T11:10:59;99963.03;;;18.76;52.12
30875;BME280;17581;43.222;27.924;2023-02-26T11:13:27;99973.47;;;18.73;52.21
30875;BME280;17581;43.222;27.924;2023-02-26T11:15:55;99964.56;;;18.64;52.17
30875;BME280;17581;43.222;27.924;2023-02-26T11:18:27;99984.75;;;18.70;51.90
30875;BME280;17581;43.222;27.924;2023-02-26T11:20:56;99988.50;;;18.69;51.93
30875;BME280;17581;43.222;27.924;2023-02-26T11:23:26;99977.91;;;18.59;52.07
30875;BME280;17581;43.222;27.924;2023-02-26T11:25:59;99984.19;;;18.60;52.23
30875;BME280;17581;43.222;27.924;2023-02-26T11:28:42;99995.94;;;18.60;52.29
30875;BME280;17581;43.222;27.924;2023-02-26T11:31:10;99979.91;;;18.51;52.59
30875;BME280;17581;43.222;27.924;2023-02-26T11:33:38;99970.41;;;18.46;52.79
30875;BME280;17581;43.222;27.924;2023-02-26T11:36:10;99969.22;;;18.34;53.06
30875;BME280;17581;43.222;27.924;2023-02-26T11:38:36;99954.84;;;18.40;52.95
30875;BME280;17581;43.222;27.924;2023-02-26T11:41:04;99945.63;;;18.41;52.93
30875;BME280;17581;43.222;27.924;2023-02-26T11:43:39;99951.56;;;18.30;52.88
30875;BME280;17581;43.222;27.924;2023-02-26T11:46:06;99958.22;;;18.42;52.89
30875;BME280;17581;43.222;27.924;2023-02-26T11:48:42;99972.41;;;18.53;52.70
30875;BME280;17581;43.222;27.924;2023-02-26T11:51:13;99986.47;;;18.56;52.30
30875;BME280;17581;43.222;27.924;2023-02-26T11:53:55;99997.19;;;18.58;52.25
30875;BME280;17581;43.222;27.924;2023-02-26T11:56:31;99993.81;;;18.56;52.47
30875;BME280;17581;43.222;27.924;2023-02-26T11:59:04;100000.94;;;18.57;52.27
30875;BME280;17581;43.222;27.924;2023-02-26T12:01:31;99990.63;;;18.52;52.49
30875;BME280;17581;43.222;27.924;2023-02-26T12:03:59;99996.25;;;18.51;52.44
30875;BME280;17581;43.222;27.924;2023-02-26T12:06:24;99985.69;;;18.47;52.24
30875;BME280;17581;43.222;27.924;2023-02-26T12:08:50;99980.63;;;18.44;52.04
30875;BME280;17581;43.222;27.924;2023-02-26T12:53:46;100009.31;;;18.55;50.55
30875;BME280;17581;43.222;27.924;2023-02-26T13:12:45;100002.16;;;18.54;50.27
30875;BME280;17581;43.222;27.924;2023-02-26T13:21:19;99993.72;;;18.34;50.70
30875;BME280;17581;43.222;27.924;2023-02-26T13:23:50;100011.47;;;18.30;50.59
30875;BME280;17581;43.222;27.924;2023-02-26T13:26:17;100012.59;;;18.21;50.96
30875;BME280;17581;43.222;27.924;2023-02-26T13:28:58;100010.91;;;18.20;50.93
30875;BME280;17581;43.222;27.924;2023-02-26T13:31:41;100018.41;;;18.18;51.11
30875;BME280;17581;43.222;27.924;2023-02-26T13:34:27;100005.84;;;18.17;51.05
30875;BME280;17581;43.222;27.924;2023-02-26T13:36:55;100020.94;;;18.20;51.04
30875;BME280;17581;43.222;27.924;2023-02-26T13:42:24;100025.56;;;18.19;50.96
30875;BME280;17581;43.222;27.924;2023-02-26T13:53:51;100036.44;;;18.19;50.34
30875;BME280;17581;43.222;27.924;2023-02-26T14:01:59;100035.31;;;18.14;50.46
30875;BME280;17581;43.222;27.924;2023-02-26T14:04:30;100037.66;;;18.17;50.40
30875;BME280;17581;43.222;27.924;2023-02-26T14:12:01;100036.06;;;18.08;50.49
30875;BME280;17581;43.222;27.924;2023-02-26T14:19:32;100044.41;;;18.06;50.69
30875;BME280;17581;43.222;27.924;2023-02-26T14:24:53;100041.31;;;18.09;50.60
30875;BME280;17581;43.222;27.924;2023-02-26T14:35:15;100032.78;;;18.12;50.17
30875;BME280;17581;43.222;27.924;2023-02-26T14:37:46;100057.28;;;18.12;50.14
30875;BME280;17581;43.222;27.924;2023-02-26T14:40:19;100060.75;;;18.06;50.49
30875;BME280;17581;43.222;27.924;2023-02-26T14:42:47;100046.66;;;18.03;50.38
30875;BME280;17581;43.222;27.924;2023-02-26T14:47:59;100070.97;;;18.04;50.33
30875;BME280;17581;43.222;27.924;2023-02-26T14:50:30;100069.38;;;18.10;50.25
30875;BME280;17581;43.222;27.924;2023-02-26T14:55:52;100075.69;;;18.10;50.49
30875;BME280;17581;43.222;27.924;2023-02-26T14:58:37;100075.19;;;18.07;50.49
30875;BME280;17581;43.222;27.924;2023-02-26T15:21:02;100078.19;;;17.97;50.44
30875;BME280;17581;43.222;27.924;2023-02-26T15:26:02;100075.75;;;17.87;50.34
30875;BME280;17581;43.222;27.924;2023-02-26T15:28:37;100095.44;;;17.89;50.62
30875;BME280;17581;43.222;27.924;2023-02-26T15:31:05;100101.56;;;17.91;50.78
30875;BME280;17581;43.222;27.924;2023-02-26T15:33:32;100106.63;;;17.94;50.87
30875;BME280;17581;43.222;27.924;2023-02-26T15:35:59;100104.53;;;17.82;50.70
30875;BME280;17581;43.222;27.924;2023-02-26T15:38:25;100118.53;;;17.93;50.55
30875;BME280;17581;43.222;27.924;2023-02-26T15:40:53;100116.28;;;17.97;50.50
30875;BME280;17581;43.222;27.924;2023-02-26T15:43:23;100127.44;;;18.02;50.59
30875;BME280;17581;43.222;27.924;2023-02-26T15:45:55;100113.19;;;18.00;50.38
30875;BME280;17581;43.222;27.924;2023-02-26T15:48:30;100113.19;;;18.00;50.52
30875;BME280;17581;43.222;27.924;2023-02-26T15:51:00;100129.88;;;17.97;50.21
30875;BME280;17581;43.222;27.924;2023-02-26T15:53:36;100132.13;;;17.93;50.65
30875;BME280;17581;43.222;27.924;2023-02-26T15:56:15;100116.81;;;17.92;50.62
30875;BME280;17581;43.222;27.924;2023-02-26T15:58:57;100122.47;;;17.91;50.83
30875;BME280;17581;43.222;27.924;2023-02-26T16:01:25;100133.53;;;17.89;50.92
30875;BME280;17581;43.222;27.924;2023-02-26T16:03:56;100114.19;;;17.84;50.95
30875;BME280;17581;43.222;27.924;2023-02-26T16:06:29;100107.41;;;17.80;50.84
30875;BME280;17581;43.222;27.924;2023-02-26T16:08:55;100113.91;;;17.79;50.90
30875;BME280;17581;43.222;27.924;2023-02-26T16:11:21;100116.63;;;17.79;50.88
30875;BME280;17581;43.222;27.924;2023-02-26T16:13:50;100132.38;;;17.84;50.82